Αρχική σελίδα
METAR-TAF:

METAR-TAF

Αεροδρόμια :

Neuquén, Αργεντινή

γεωγραφικό πλάτος: 38-57S, γεωγραφικό μήκος: 068-08W, υψόμετρο: 270 μ

Παρών καιρός

Η αναφορά έγινε 46 λεπτά πριν, στις 02:00 UTC
Ήπιος άνεμος
Θερμοκρασία 8°C
Υγρασία 61%
Πίεση 1014 hPa
Ορατότητα 10 χλμ και άνω
Δεν υπάρχουν νέφη με βάση κάτω από τα 1500 μ. και δεν υπάρχουν νέφη σωρειτομελανίτες.

METAR: SAZN 230200Z 00000KT CAVOK 08/01 Q1014

Χρόνος: 23:46 (02:46 UTC)

Πρόγνωση Καιρού

Η αναφορά έγινε 3 ώρες και 46 λεπτά πριν, στις 23:00 UTC
Η πρόγνωση ισχύει από τις 23 στις 00 UTC έως τις 23 στις 24 UTC
Άνεμος 3 kt από μεταβλητές κατευθύνσεις
Ορατότητα 10 χλμ και άνω
Δεν υπάρχουν νέφη με βάση κάτω από τα 1500 μ. και δεν υπάρχουν νέφη σωρειτομελανίτες.
Καθιστάμενος
από 23 στις 18 UTC έως τις 23 στις 20 UTC
Άνεμος 10 kt από Δ/ΝΔ

TAF: SAZN 222300Z 2300/2324 VRB03KT CAVOK TX19/2318Z TN03/2312Z BECMG 2318/2320 25010KT

Μετεωρολογικές αναφορές και προγνώσεις για περισσότερα από 4000 αεροδρόμια (δελτία METAR και TAF).

Οι διαθέσιμοι σταθμοί απεικονίζονται στο χάρτη με κίτρινες και κόκκινες κουκκίδες.

Μετακινήστε το ποντίκι πάνω από τις κουκκίδες για να δείτε το όνομα του σταθμού.

Στη συνέχεια, κάντε κλικ για να δείτε τις μετεωρολογικές αναφορές και τις προγνώσεις καιρού.

Για να αλλάξετε το χάρτη: κάντε κλικ στα πράσινα κουμπιά με τον μαύρο σταυρό για να ζουμάρετε, στο πράσινο κουμπί με την παύλα για να αφαιρέσετε το ζουμ ή στα πράσινα βέλη για να αντιπαραβάλλετε χάρτες.


METAR-TAF: